Time;durP1;ratioP1;P1;durP2;ratioP2;P2;SDS_P1;SDS_P2;PMS_P1;PMS_P2;Temp;Humidity;BMP_temperature;BMP_pressure;BME280_temperature;BME280_humidity;BME280_pressure;Samples;Min_cycle;Max_cycle;Signal;HPM_P1;HPM_P2
2024/02/22 00:01:50;;;;;;;9.00;7.20;;;;;;;9.01;97.92;99502.44;182007;1234;46097;-82
2024/02/22 00:05:52;;;;;;;13.10;7.70;;;;;;;9.05;97.31;99495.81;182447;1234;45976;-81
2024/02/22 00:09:54;;;;;;;12.60;6.60;;;;;;;9.09;96.57;99493.84;182838;1236;45947;-81
2024/02/22 00:13:55;;;;;;;8.30;5.50;;;;;;;9.13;96.57;99479.52;183601;1233;46188;-82
2024/02/22 00:17:58;;;;;;;8.50;5.70;;;;;;;9.16;96.48;99468.25;183641;1235;57974;-82
2024/02/22 00:21:59;;;;;;;18.80;8.40;;;;;;;9.15;95.65;99464.08;183031;1235;46171;-81
2024/02/22 00:26:01;;;;;;;9.60;7.00;;;;;;;9.15;95.48;99458.60;184363;1233;46049;-82
2024/02/22 00:30:03;;;;;;;8.90;5.80;;;;;;;9.11;95.01;99448.88;183172;1235;46135;-81
2024/02/22 00:34:04;;;;;;;10.40;5.70;;;;;;;9.10;95.05;99444.94;182624;1233;46087;-81
2024/02/22 00:38:06;;;;;;;8.40;5.50;;;;;;;9.10;94.91;99437.98;182272;1234;59449;-81
2024/02/22 00:42:08;;;;;;;12.00;7.30;;;;;;;9.10;94.55;99435.89;183284;1233;45139;-81
2024/02/22 00:46:10;;;;;;;11.80;5.70;;;;;;;9.10;94.58;99427.23;183005;1234;46067;-81
2024/02/22 00:50:12;;;;;;;10.00;5.60;;;;;;;9.08;94.38;99423.49;182786;1234;46005;-81
2024/02/22 00:54:13;;;;;;;12.40;5.60;;;;;;;9.08;94.14;99410.61;182238;1234;45931;-81
2024/02/22 00:58:15;;;;;;;7.00;4.30;;;;;;;9.07;93.62;99404.68;182295;1234;57943;-81
2024/02/22 01:02:17;;;;;;;8.90;5.50;;;;;;;9.08;93.74;99397.19;182923;1234;46518;-81
2024/02/22 01:06:18;;;;;;;6.60;5.00;;;;;;;9.07;93.36;99391.42;182833;1235;46168;-81
2024/02/22 01:10:21;;;;;;;7.20;5.80;;;;;;;9.09;93.55;99389.34;182249;1234;46034;-81
2024/02/22 01:14:22;;;;;;;11.50;6.00;;;;;;;9.11;92.95;99377.60;183292;1237;45852;-81
2024/02/22 01:18:24;;;;;;;7.20;5.10;;;;;;;9.13;92.69;99359.53;182372;1234;59280;-81
2024/02/22 01:22:25;;;;;;;6.90;5.10;;;;;;;9.15;89.49;99349.15;183192;1233;46207;-81
2024/02/22 01:26:27;;;;;;;8.40;5.20;;;;;;;9.22;86.67;99339.46;183154;1237;46327;-81
2024/02/22 01:30:29;;;;;;;7.70;4.70;;;;;;;9.37;85.09;99331.09;183499;1235;46082;-81
2024/02/22 01:34:30;;;;;;;12.20;4.10;;;;;;;9.45;83.83;99327.17;183660;1233;45893;-82
2024/02/22 01:38:32;;;;;;;4.20;3.60;;;;;;;9.53;82.18;99322.69;183020;1234;59179;-81
2024/02/22 01:42:34;;;;;;;6.10;4.50;;;;;;;9.62;81.97;99315.70;181980;1237;45979;-80
2024/02/22 01:46:37;;;;;;;4.10;3.70;;;;;;;9.67;82.10;99316.23;182606;1233;46171;-80
2024/02/22 01:50:41;;;;;;;19.10;5.30;;;;;;;9.66;81.96;99314.41;183305;1233;46007;-81
2024/02/22 01:54:42;;;;;;;5.00;3.70;;;;;;;9.66;82.92;99300.23;183179;1233;45996;-81
2024/02/22 01:58:47;;;;;;;5.10;3.50;;;;;;;9.58;82.31;99286.29;183465;1237;59210;-80
2024/02/22 02:02:49;;;;;;;10.90;3.80;;;;;;;9.54;83.00;99284.15;185453;1234;44248;-81
2024/02/22 02:06:51;;;;;;;5.10;4.10;;;;;;;9.49;83.90;99280.05;184037;1234;46074;-81
2024/02/22 02:10:52;;;;;;;5.60;4.00;;;;;;;9.50;85.25;99273.42;183635;1234;46162;-81
2024/02/22 02:14:56;;;;;;;9.70;4.80;;;;;;;9.43;86.14;99272.77;183320;1234;46081;-81
2024/02/22 02:18:58;;;;;;;5.80;4.60;;;;;;;9.35;86.68;99265.61;182618;1233;59202;-81
2024/02/22 02:23:27;;;;;;;6.60;4.20;;;;;;;9.26;87.53;99258.96;183419;1235;45983;-81
2024/02/22 02:27:31;;;;;;;9.10;4.40;;;;;;;9.20;87.68;99254.24;182939;1234;46097;-81
2024/02/22 02:31:32;;;;;;;13.80;4.70;;;;;;;9.17;87.92;99248.68;182428;1234;45980;-80
2024/02/22 02:35:37;;;;;;;9.10;4.90;;;;;;;9.13;88.46;99243.50;182583;1237;46055;-80
2024/02/22 02:39:40;;;;;;;6.30;4.60;;;;;;;9.09;88.82;99235.47;182527;1234;59463;-80
2024/02/22 02:43:42;;;;;;;9.40;5.40;;;;;;;9.05;89.93;99226.45;183191;1234;46099;-81
2024/02/22 02:47:43;;;;;;;14.30;5.30;;;;;;;8.98;90.35;99220.82;183223;1233;46131;-81
2024/02/22 02:51:47;;;;;;;7.10;4.80;;;;;;;8.96;90.83;99218.23;183230;1237;45970;-81
2024/02/22 02:55:48;;;;;;;7.30;6.00;;;;;;;8.92;90.60;99212.56;182669;1234;45942;-81
2024/02/22 02:59:51;;;;;;;7.90;4.70;;;;;;;8.92;90.48;99212.23;184316;1234;60072;-82
2024/02/22 03:03:52;;;;;;;15.20;5.40;;;;;;;8.91;89.59;99200.65;182711;1234;46062;-82
2024/02/22 03:07:54;;;;;;;5.80;3.60;;;;;;;8.95;89.07;99202.17;181978;1234;46070;-81
2024/02/22 03:11:56;;;;;;;7.60;5.40;;;;;;;8.98;89.32;99199.98;183030;1234;46074;-81
2024/02/22 03:15:58;;;;;;;7.40;4.90;;;;;;;9.03;88.45;99198.34;184663;1236;45910;-81
2024/02/22 03:20:00;;;;;;;9.40;4.50;;;;;;;9.06;87.76;99191.48;183648;1233;59399;-82
2024/02/22 03:24:02;;;;;;;8.20;4.80;;;;;;;9.07;87.68;99196.75;183013;1233;46133;-81
2024/02/22 03:28:06;;;;;;;7.60;4.10;;;;;;;9.03;86.90;99186.64;183728;1234;46121;-81
2024/02/22 03:32:08;;;;;;;5.10;3.80;;;;;;;9.03;86.88;99183.95;183552;1234;46284;-81
2024/02/22 03:36:10;;;;;;;6.50;4.00;;;;;;;9.04;86.72;99183.50;183235;1233;45999;-81
2024/02/22 03:40:12;;;;;;;6.60;4.30;;;;;;;9.02;86.33;99175.91;182649;1234;57924;-81
2024/02/22 03:44:15;;;;;;;4.30;3.60;;;;;;;8.99;85.81;99171.62;182301;1233;46078;-82
2024/02/22 03:48:16;;;;;;;4.90;3.70;;;;;;;9.03;85.83;99167.69;184529;1237;44817;-81
2024/02/22 03:52:19;;;;;;;5.80;4.00;;;;;;;9.04;85.11;99169.92;183000;1235;46047;-82
2024/02/22 03:56:21;;;;;;;9.10;5.30;;;;;;;9.06;84.04;99168.45;183870;1233;45935;-81
2024/02/22 04:00:22;;;;;;;5.20;3.70;;;;;;;9.08;84.21;99162.10;182916;1234;58242;-81
2024/02/22 04:04:27;;;;;;;10.20;4.50;;;;;;;9.05;83.87;99151.66;183093;1238;46073;-81
2024/02/22 04:08:29;;;;;;;7.60;4.60;;;;;;;9.06;83.86;99140.59;183311;1234;44684;-81
2024/02/22 04:12:31;;;;;;;14.00;3.70;;;;;;;9.05;83.08;99131.82;182615;1233;46152;-81
2024/02/22 04:16:32;;;;;;;14.70;5.40;;;;;;;9.02;83.27;99127.44;182526;1234;46032;-81
2024/02/22 04:20:34;;;;;;;6.40;3.40;;;;;;;9.03;83.27;99121.60;183368;1234;58615;-81
2024/02/22 04:24:35;;;;;;;9.90;5.30;;;;;;;8.96;83.36;99116.38;182098;1234;44468;-81
2024/02/22 04:28:37;;;;;;;12.80;5.40;;;;;;;8.92;83.06;99109.30;182762;1234;46048;-80
2024/02/22 04:32:39;;;;;;;10.80;4.90;;;;;;;8.90;82.93;99107.05;181980;1237;46046;-79
2024/02/22 04:36:41;;;;;;;4.80;3.80;;;;;;;8.87;82.96;99104.10;183051;1237;46104;-80
2024/02/22 04:40:44;;;;;;;8.60;4.40;;;;;;;8.90;82.54;99095.19;182775;1236;57935;-80
2024/02/22 04:44:45;;;;;;;10.80;6.60;;;;;;;8.89;82.77;99086.94;182413;1234;46103;-81
2024/02/22 04:48:47;;;;;;;10.00;5.90;;;;;;;8.86;81.86;99080.71;182849;1237;45965;-80
2024/02/22 04:52:49;;;;;;;7.80;3.50;;;;;;;8.88;81.20;99073.24;182642;1234;46110;-81
2024/02/22 04:56:51;;;;;;;4.80;3.00;;;;;;;8.94;79.97;99060.85;182940;1236;45983;-80
2024/02/22 05:00:52;;;;;;;8.40;3.80;;;;;;;8.99;79.47;99057.77;183291;1237;60938;-81
2024/02/22 05:04:54;;;;;;;13.10;4.40;;;;;;;9.04;78.32;99058.30;182927;1234;46088;-81
2024/02/22 05:08:56;;;;;;;5.00;2.70;;;;;;;9.08;78.36;99047.87;182659;1237;46040;-81
2024/02/22 05:12:58;;;;;;;11.30;4.90;;;;;;;9.10;77.86;99031.59;183730;1234;45977;-82
2024/02/22 05:16:59;;;;;;;4.20;2.40;;;;;;;9.17;77.79;99023.64;183108;1234;44675;-81
2024/02/22 05:21:01;;;;;;;12.40;3.30;;;;;;;9.21;76.76;99028.09;183303;1237;59494;-81
2024/02/22 05:25:03;;;;;;;6.70;3.10;;;;;;;9.27;76.77;99027.50;182293;1234;46109;-81
2024/02/22 05:29:05;;;;;;;7.60;2.70;;;;;;;9.30;77.08;99023.18;184778;1234;45944;-82
2024/02/22 05:33:09;;;;;;;9.50;3.80;;;;;;;9.30;77.27;99024.23;182658;1234;45963;-81
2024/02/22 05:37:11;;;;;;;15.90;5.90;;;;;;;9.27;77.44;99021.11;183526;1234;46005;-82
2024/02/22 05:41:14;;;;;;;3.50;2.60;;;;;;;9.27;78.17;99020.63;183484;1233;59926;-81
2024/02/22 05:45:33;;;;;;;2.70;2.30;;;;;;;9.30;80.23;99013.38;182858;1234;46078;-81
2024/02/22 05:49:34;;;;;;;5.70;2.50;;;;;;;9.36;81.93;99009.35;182979;1237;46110;-82
2024/02/22 05:53:37;;;;;;;15.50;4.20;;;;;;;9.37;82.41;99003.19;181794;1235;44442;-81
2024/02/22 05:57:39;;;;;;;19.10;7.00;;;;;;;9.40;83.31;98997.27;184779;1234;45938;-81
2024/02/22 06:01:41;;;;;;;7.40;3.70;;;;;;;9.38;83.85;98993.38;184568;1233;57881;-81
2024/02/22 06:05:43;;;;;;;7.90;3.10;;;;;;;9.41;83.64;98986.01;182980;1237;45124;-81
2024/02/22 06:09:45;;;;;;;3.30;2.50;;;;;;;9.41;83.81;98984.36;183491;1235;45930;-80
2024/02/22 06:13:47;;;;;;;6.90;3.70;;;;;;;9.42;84.30;98981.44;183451;1234;45896;-80
2024/02/22 06:17:49;;;;;;;4.80;3.60;;;;;;;9.40;85.26;98972.77;183467;1234;46412;-83
2024/02/22 06:21:51;;;;;;;8.00;3.80;;;;;;;9.38;86.42;98970.71;184045;1233;59627;-85
2024/02/22 06:25:54;;;;;;;8.80;3.30;;;;;;;9.37;87.58;98965.17;183463;1237;45945;-83
2024/02/22 06:29:56;;;;;;;3.80;2.30;;;;;;;9.34;88.63;98954.48;183350;1237;46035;-84
2024/02/22 06:33:57;;;;;;;9.80;4.10;;;;;;;9.32;89.89;98942.47;183898;1236;46376;-83
2024/02/22 06:37:59;;;;;;;8.30;4.90;;;;;;;9.32;91.05;98937.66;184062;1234;44698;-83
2024/02/22 06:42:01;;;;;;;3.90;3.40;;;;;;;9.32;91.40;98930.93;183222;1237;57964;-85
2024/02/22 06:46:06;;;;;;;3.80;3.20;;;;;;;9.43;91.94;98927.73;183407;1234;46009;-84
2024/02/22 06:50:09;;;;;;;7.60;3.00;;;;;;;9.46;92.46;98912.42;183804;1234;46005;-85
2024/02/22 06:54:13;;;;;;;7.80;3.70;;;;;;;9.50;93.53;98907.64;183127;1234;46031;-84
2024/02/22 06:58:14;;;;;;;7.60;3.10;;;;;;;9.55;94.45;98906.02;183545;1235;45880;-84
2024/02/22 07:02:18;;;;;;;9.40;2.90;;;;;;;9.61;95.09;98902.41;183098;1233;59282;-84
2024/02/22 07:06:21;;;;;;;2.30;2.10;;;;;;;9.65;95.59;98896.71;183510;1235;46298;-84
2024/02/22 07:10:23;;;;;;;2.40;2.00;;;;;;;9.70;96.19;98884.73;183380;1238;46194;-83
2024/02/22 07:14:24;;;;;;;3.10;2.10;;;;;;;9.76;96.32;98870.00;183584;1234;46160;-84
2024/02/22 07:18:26;;;;;;;4.20;2.70;;;;;;;9.78;96.67;98859.19;184024;1237;45987;-84
2024/02/22 07:22:28;;;;;;;2.40;1.40;;;;;;;9.85;96.71;98855.75;184379;1234;58000;-84
2024/02/22 07:26:30;;;;;;;4.90;1.90;;;;;;;9.91;97.28;98850.08;183720;1234;44031;-84
2024/02/22 07:30:33;;;;;;;4.10;2.20;;;;;;;9.98;97.57;98847.79;183513;1234;45981;-84
2024/02/22 07:34:35;;;;;;;2.20;1.70;;;;;;;10.00;98.58;98840.43;184424;1235;44074;-83
2024/02/22 07:38:37;;;;;;;4.70;2.30;;;;;;;10.01;99.78;98840.17;183671;1234;46083;-84
2024/02/22 07:42:40;;;;;;;1.60;1.30;;;;;;;10.02;99.45;98836.88;183720;1234;58279;-82
2024/02/22 07:46:42;;;;;;;5.00;3.30;;;;;;;10.02;99.58;98831.41;183113;1233;46067;-82
2024/02/22 07:50:43;;;;;;;2.90;2.20;;;;;;;9.98;100.00;98822.42;182999;1234;45999;-83
2024/02/22 07:54:47;;;;;;;3.40;1.90;;;;;;;9.88;100.00;98814.90;183770;1238;44044;-84
2024/02/22 07:58:52;;;;;;;2.60;1.20;;;;;;;9.79;100.00;98808.55;183363;1237;46079;-84
2024/02/22 08:02:54;;;;;;;5.90;1.90;;;;;;;9.76;100.00;98806.83;184066;1234;57925;-84
2024/02/22 08:06:55;;;;;;;3.30;2.20;;;;;;;9.72;100.00;98797.58;182543;1234;46005;-84
2024/02/22 08:10:57;;;;;;;1.90;1.70;;;;;;;9.73;100.00;98787.59;184163;1233;44851;-84
2024/02/22 08:14:59;;;;;;;4.70;1.90;;;;;;;9.73;100.00;98785.81;183876;1236;45959;-83
2024/02/22 08:19:01;;;;;;;3.50;1.70;;;;;;;9.74;100.00;98780.73;183261;1237;46085;-83
2024/02/22 08:23:08;;;;;;;1.70;1.30;;;;;;;9.83;100.00;98775.96;183167;1234;58291;-83
2024/02/22 08:27:10;;;;;;;3.00;1.50;;;;;;;9.94;100.00;98770.64;183121;1237;45997;-83
2024/02/22 08:31:12;;;;;;;5.20;3.90;;;;;;;9.95;100.00;98765.00;183004;1234;46016;-83
2024/02/22 08:35:17;;;;;;;3.80;1.20;;;;;;;10.03;100.00;98762.72;184444;1234;45931;-84
2024/02/22 08:39:19;;;;;;;3.90;2.40;;;;;;;10.05;100.00;98757.77;182807;1237;46042;-83
2024/02/22 08:43:21;;;;;;;4.00;2.70;;;;;;;10.04;100.00;98753.15;183134;1237;57968;-82
2024/02/22 08:47:23;;;;;;;3.20;2.30;;;;;;;10.01;100.00;98745.46;183308;1233;46089;-83
2024/02/22 08:51:25;;;;;;;2.70;1.70;;;;;;;9.96;100.00;98738.30;183943;1235;46088;-82
2024/02/22 08:55:27;;;;;;;2.20;1.70;;;;;;;9.96;100.00;98729.98;183101;1237;45973;-83
2024/02/22 08:59:28;;;;;;;4.20;2.50;;;;;;;9.98;100.00;98732.77;183090;1235;46184;-85
2024/02/22 09:03:31;;;;;;;1.80;1.70;;;;;;;10.00;100.00;98728.55;183053;1234;59444;-83
2024/02/22 09:07:35;;;;;;;1.60;1.10;;;;;;;10.04;100.00;98721.55;183112;1234;46395;-85
2024/02/22 09:11:37;;;;;;;1.30;1.20;;;;;;;10.05;100.00;98710.63;183173;1234;45966;-83
2024/02/22 09:15:39;;;;;;;1.50;1.20;;;;;;;10.04;100.00;98711.45;183638;1235;46099;-83
2024/02/22 09:19:42;;;;;;;1.70;1.50;;;;;;;10.09;100.00;98712.55;183802;1237;43973;-83
2024/02/22 09:23:44;;;;;;;1.70;1.30;;;;;;;10.08;100.00;98708.95;184277;1235;60180;-83
2024/02/22 09:27:50;;;;;;;4.50;2.30;;;;;;;10.07;100.00;98703.42;183417;1237;46012;-83
2024/02/22 09:31:55;;;;;;;2.60;2.00;;;;;;;10.05;100.00;98697.87;184202;1234;45767;-83
2024/02/22 09:35:57;;;;;;;2.70;2.00;;;;;;;10.03;100.00;98693.73;183423;1234;46085;-83
2024/02/22 09:39:59;;;;;;;2.50;2.10;;;;;;;10.05;100.00;98689.23;183568;1234;46082;-82
2024/02/22 09:44:01;;;;;;;1.90;1.80;;;;;;;10.06;100.00;98689.90;183641;1235;57914;-83
2024/02/22 09:48:03;;;;;;;3.60;1.90;;;;;;;10.07;100.00;98684.79;183248;1234;45102;-84
2024/02/22 09:52:06;;;;;;;4.40;3.00;;;;;;;10.05;100.00;98680.37;183054;1234;46085;-84
2024/02/22 09:56:09;;;;;;;2.80;1.50;;;;;;;10.04;100.00;98670.90;183373;1237;45881;-83
2024/02/22 10:00:11;;;;;;;2.70;1.80;;;;;;;10.09;100.00;98664.16;183033;1235;46063;-84
2024/02/22 10:04:23;;;;;;;2.80;2.20;;;;;;;10.12;100.00;98659.95;184433;1237;59853;-83
2024/02/22 10:08:24;;;;;;;2.00;1.50;;;;;;;10.20;100.00;98655.79;183168;1234;45864;-82
2024/02/22 10:12:35;;;;;;;2.20;1.20;;;;;;;10.33;100.00;98652.88;183957;1237;44853;-83
2024/02/22 10:16:41;;;;;;;3.20;2.40;;;;;;;10.47;100.00;98637.50;183262;1233;45996;-83
2024/02/22 10:20:43;;;;;;;2.70;1.40;;;;;;;10.65;100.00;98632.02;183229;1236;46146;-83
2024/02/22 10:24:47;;;;;;;1.70;1.60;;;;;;;10.79;100.00;98622.06;182802;1234;58422;-82
2024/02/22 10:29:08;;;;;;;3.20;2.30;;;;;;;10.92;100.00;98616.04;184544;1234;45996;-82
2024/02/22 10:33:11;;;;;;;5.10;2.60;;;;;;;11.06;100.00;98620.58;183427;1235;46073;-82
2024/02/22 10:37:13;;;;;;;2.10;1.70;;;;;;;11.16;100.00;98617.45;183834;1234;45878;-81
2024/02/22 10:41:15;;;;;;;2.60;2.00;;;;;;;11.23;99.93;98612.05;183322;1233;43984;-82
2024/02/22 10:45:17;;;;;;;4.80;2.50;;;;;;;11.29;98.88;98606.82;183540;1234;59294;-82
2024/02/22 10:49:19;;;;;;;5.40;2.60;;;;;;;11.38;99.59;98597.46;183693;1234;45975;-81
2024/02/22 10:53:22;;;;;;;3.30;1.80;;;;;;;11.43;98.43;98579.42;183278;1237;45976;-83
2024/02/22 10:57:29;;;;;;;4.80;1.70;;;;;;;11.49;98.51;98574.66;183979;1237;44059;-84
2024/02/22 11:01:33;;;;;;;2.40;1.80;;;;;;;11.51;97.99;98572.66;183992;1234;46079;-83
2024/02/22 11:05:36;;;;;;;2.70;1.90;;;;;;;11.48;98.00;98563.79;183748;1235;60087;-82
2024/02/22 11:09:41;;;;;;;4.10;2.00;;;;;;;11.51;98.24;98555.02;183890;1233;45932;-82
2024/02/22 11:13:43;;;;;;;1.80;1.70;;;;;;;11.54;99.05;98545.81;183994;1235;46027;-81
2024/02/22 11:17:52;;;;;;;3.00;1.90;;;;;;;11.61;99.31;98541.97;184199;1234;44912;-82
2024/02/22 11:21:54;;;;;;;5.30;2.90;;;;;;;11.65;98.78;98537.65;184469;1234;45957;-83
2024/02/22 11:25:56;;;;;;;3.20;2.60;;;;;;;11.73;98.24;98529.98;183508;1235;1350003;-81
2024/02/22 11:29:59;;;;;;;3.20;2.30;;;;;;;11.80;98.77;98518.42;185238;1237;45976;-81
2024/02/22 11:34:02;;;;;;;2.60;2.40;;;;;;;11.91;98.94;98498.79;184449;1233;46011;-82
2024/02/22 11:38:04;;;;;;;3.20;2.60;;;;;;;12.04;98.69;98498.04;183818;1236;44039;-81
2024/02/22 11:42:13;;;;;;;2.40;1.60;;;;;;;12.16;98.12;98491.92;185008;1235;44018;-82
2024/02/22 11:46:15;;;;;;;2.40;2.10;;;;;;;12.35;98.53;98482.78;183573;1235;59450;-81
2024/02/22 11:50:17;;;;;;;2.80;1.80;;;;;;;12.44;98.62;98475.00;184528;1235;46011;-82
2024/02/22 11:54:21;;;;;;;1.60;1.40;;;;;;;12.53;97.19;98472.67;184904;1234;43981;-82
2024/02/22 11:58:22;;;;;;;4.10;2.20;;;;;;;12.59;98.54;98463.44;184670;1236;45976;-82
2024/02/22 12:02:24;;;;;;;1.70;1.40;;;;;;;12.66;99.51;98457.47;185335;1235;44083;-82
2024/02/22 12:06:26;;;;;;;2.70;1.40;;;;;;;12.65;98.70;98452.66;185269;1234;59736;-81
2024/02/22 12:10:28;;;;;;;1.70;1.20;;;;;;;12.68;98.52;98447.60;184657;1233;44047;-82
2024/02/22 12:14:30;;;;;;;3.20;2.60;;;;;;;12.60;97.22;98442.16;183739;1237;46079;-81
2024/02/22 12:18:31;;;;;;;3.00;2.00;;;;;;;12.59;97.15;98431.92;182895;1237;45995;-81
2024/02/22 12:22:34;;;;;;;5.30;1.70;;;;;;;12.63;97.30;98426.52;182609;1234;46085;-81
2024/02/22 12:26:35;;;;;;;1.50;1.40;;;;;;;12.63;96.22;98417.63;183037;1237;57903;-80
2024/02/22 12:30:39;;;;;;;1.70;1.50;;;;;;;12.63;96.29;98412.74;182908;1235;46781;-81
2024/02/22 12:34:41;;;;;;;3.60;2.00;;;;;;;12.69;96.56;98405.14;183379;1235;46050;-82
2024/02/22 12:38:42;;;;;;;4.00;2.70;;;;;;;12.71;95.88;98395.11;183195;1233;45993;-81
2024/02/22 12:42:52;;;;;;;2.90;2.50;;;;;;;12.62;93.75;98386.42;183912;1235;46065;-81
2024/02/22 12:46:53;;;;;;;4.00;2.80;;;;;;;12.53;93.29;98380.02;183530;1234;59372;-82
2024/02/22 12:50:55;;;;;;;3.90;2.50;;;;;;;12.43;93.09;98371.05;182830;1236;45890;-81
2024/02/22 12:54:57;;;;;;;2.80;2.30;;;;;;;12.40;93.55;98357.89;183225;1235;45960;-82
2024/02/22 12:59:05;;;;;;;4.80;3.70;;;;;;;12.30;92.47;98349.17;183256;1233;46054;-82
2024/02/22 13:03:07;;;;;;;3.20;2.80;;;;;;;12.21;92.74;98345.16;183261;1237;46013;-82
2024/02/22 13:07:12;;;;;;;4.10;3.00;;;;;;;12.05;92.66;98339.11;183407;1237;59392;-82
2024/02/22 13:11:14;;;;;;;2.80;2.20;;;;;;;12.01;94.16;98335.67;183279;1234;46048;-82
2024/02/22 13:15:16;;;;;;;3.20;2.40;;;;;;;11.91;92.30;98328.02;183751;1235;46104;-82
2024/02/22 13:19:19;;;;;;;3.00;2.10;;;;;;;11.89;93.30;98325.23;183239;1237;46694;-82
2024/02/22 13:23:23;;;;;;;5.00;2.40;;;;;;;11.85;92.82;98315.23;183125;1234;46008;-82
2024/02/22 13:27:24;;;;;;;1.90;1.70;;;;;;;11.82;93.32;98311.63;183381;1235;58037;-82
2024/02/22 13:31:26;;;;;;;1.50;1.40;;;;;;;11.79;93.13;98307.60;183227;1233;45945;-81
2024/02/22 13:35:28;;;;;;;2.00;1.80;;;;;;;11.80;93.24;98305.98;183104;1235;45938;-82
2024/02/22 13:39:29;;;;;;;2.50;2.30;;;;;;;11.84;94.12;98300.75;183624;1236;45983;-82
2024/02/22 13:43:32;;;;;;;3.40;2.70;;;;;;;11.87;94.99;98284.00;183441;1235;45960;-82
2024/02/22 13:47:33;;;;;;;2.90;2.40;;;;;;;11.85;94.54;98279.66;183522;1235;58166;-82
2024/02/22 13:51:35;;;;;;;4.30;3.00;;;;;;;11.81;94.12;98273.34;183097;1235;46034;-82
2024/02/22 13:55:41;;;;;;;3.80;3.10;;;;;;;11.82;93.94;98268.64;183735;1235;46074;-82
2024/02/22 13:59:43;;;;;;;9.80;2.80;;;;;;;11.81;94.02;98260.46;184137;1235;45954;-82
2024/02/22 14:03:46;;;;;;;6.60;3.50;;;;;;;11.74;94.15;98252.37;183427;1233;46075;-82
2024/02/22 14:07:51;;;;;;;4.40;3.20;;;;;;;11.73;94.63;98248.95;183663;1235;58109;-82
2024/02/22 14:11:53;;;;;;;4.80;3.20;;;;;;;11.71;94.48;98244.02;183236;1235;46009;-82
2024/02/22 14:15:55;;;;;;;3.80;3.10;;;;;;;11.70;94.71;98235.20;183070;1234;45984;-82
2024/02/22 14:19:57;;;;;;;9.40;4.60;;;;;;;11.66;94.62;98231.36;183746;1235;46213;-82
2024/02/22 14:23:59;;;;;;;7.50;5.50;;;;;;;11.67;95.04;98228.84;183891;1237;46781;-82
2024/02/22 14:28:00;;;;;;;8.80;5.60;;;;;;;11.70;95.28;98220.03;183158;1237;56836;-82
2024/02/22 14:32:03;;;;;;;7.30;6.10;;;;;;;11.74;95.75;98222.88;182840;1235;45987;-82
2024/02/22 14:36:05;;;;;;;5.10;4.50;;;;;;;11.75;95.21;98213.51;183793;1235;46086;-82
2024/02/22 14:40:11;;;;;;;10.60;6.00;;;;;;;11.78;95.66;98211.78;184165;1235;45991;-82
2024/02/22 14:44:13;;;;;;;8.00;6.10;;;;;;;11.72;94.63;98206.30;183061;1237;46050;-82
2024/02/22 14:48:14;;;;;;;10.40;5.40;;;;;;;11.68;94.25;98206.86;182870;1235;59899;-82
2024/02/22 14:52:16;;;;;;;8.80;5.00;;;;;;;11.69;94.89;98205.86;182956;1234;46002;-81
2024/02/22 14:56:18;;;;;;;6.70;5.30;;;;;;;11.69;94.37;98207.48;183654;1233;46106;-82
2024/02/22 15:00:19;;;;;;;8.60;4.90;;;;;;;11.69;94.53;98200.73;183115;1237;46089;-82
2024/02/22 15:04:23;;;;;;;7.10;5.50;;;;;;;11.66;94.60;98197.21;182602;1235;45976;-81
2024/02/22 15:08:25;;;;;;;8.10;6.10;;;;;;;11.61;94.83;98193.00;183114;1235;59412;-82
2024/02/22 15:12:27;;;;;;;3.70;3.30;;;;;;;11.52;94.22;98176.86;183297;1235;44780;-82
2024/02/22 15:16:28;;;;;;;6.00;3.50;;;;;;;11.48;93.86;98163.70;183564;1234;44065;-82
2024/02/22 15:20:30;;;;;;;7.10;6.50;;;;;;;11.44;94.72;98156.68;182792;1235;46441;-82
2024/02/22 15:24:32;;;;;;;12.50;5.90;;;;;;;11.38;95.38;98156.67;183628;1237;46107;-82
2024/02/22 15:28:33;;;;;;;7.00;5.60;;;;;;;11.28;95.75;98142.05;182552;1235;59307;-82
2024/02/22 15:32:36;;;;;;;14.60;6.50;;;;;;;11.20;96.49;98143.12;182879;1233;45963;-82
2024/02/22 15:36:38;;;;;;;7.30;6.40;;;;;;;11.13;97.02;98146.27;183964;1234;45899;-82
2024/02/22 15:40:43;;;;;;;13.10;8.80;;;;;;;11.09;97.41;98150.89;182891;1235;45962;-82
2024/02/22 15:44:44;;;;;;;8.40;5.50;;;;;;;10.95;97.49;98146.23;183640;1234;45971;-82
2024/02/22 15:48:46;;;;;;;9.90;6.90;;;;;;;10.87;98.23;98138.66;183517;1233;57805;-82
2024/02/22 15:52:48;;;;;;;10.10;5.80;;;;;;;10.79;98.42;98140.13;183526;1234;46012;-81
2024/02/22 15:56:50;;;;;;;8.60;7.00;;;;;;;10.75;98.96;98146.66;183210;1236;46002;-82
2024/02/22 16:00:51;;;;;;;7.80;6.60;;;;;;;10.70;99.05;98141.20;183437;1235;44727;-82
2024/02/22 16:04:53;;;;;;;9.50;6.10;;;;;;;10.66;99.19;98135.06;182994;1233;46157;-82
2024/02/22 16:08:57;;;;;;;10.40;7.10;;;;;;;10.60;99.29;98126.20;183202;1237;57779;-82
2024/02/22 16:12:59;;;;;;;9.30;6.40;;;;;;;10.58;99.44;98117.80;183016;1234;46177;-82
2024/02/22 16:17:01;;;;;;;11.40;6.70;;;;;;;10.55;99.30;98110.25;184072;1237;44221;-82
2024/02/22 16:21:03;;;;;;;9.50;7.20;;;;;;;10.59;99.72;98109.66;183155;1235;46081;-82
2024/02/22 16:25:06;;;;;;;6.90;5.30;;;;;;;10.58;99.85;98106.55;183771;1234;46266;-82
2024/02/22 16:29:09;;;;;;;8.00;5.00;;;;;;;10.53;100.00;98106.98;183502;1233;57904;-82
2024/02/22 16:33:11;;;;;;;10.20;6.60;;;;;;;10.50;100.00;98105.05;182908;1234;45910;-83
2024/02/22 16:37:13;;;;;;;8.00;5.40;;;;;;;10.52;100.00;98109.09;183443;1234;46142;-82
2024/02/22 16:41:29;;;;;;;5.90;4.80;;;;;;;10.51;100.00;98110.97;183066;1237;46085;-82
2024/02/22 16:45:31;;;;;;;7.60;5.50;;;;;;;10.51;100.00;98117.84;183117;1234;45974;-82
2024/02/22 16:49:32;;;;;;;9.10;5.60;;;;;;;10.51;100.00;98118.40;182840;1234;59771;-83
2024/02/22 16:53:34;;;;;;;8.40;5.90;;;;;;;10.53;100.00;98122.77;182872;1237;45973;-82
2024/02/22 16:57:36;;;;;;;9.70;6.10;;;;;;;10.59;100.00;98126.55;184089;1233;44171;-82
2024/02/22 17:01:38;;;;;;;9.10;6.80;;;;;;;10.60;100.00;98128.69;183346;1237;46059;-83
2024/02/22 17:05:40;;;;;;;13.00;7.90;;;;;;;10.61;100.00;98125.36;184893;1233;44811;-83
2024/02/22 17:09:42;;;;;;;13.50;7.90;;;;;;;10.63;100.00;98113.83;185415;1237;58557;-82
2024/02/22 17:13:43;;;;;;;6.90;6.00;;;;;;;10.64;100.00;98108.80;184945;1233;45928;-82
2024/02/22 17:17:47;;;;;;;7.50;5.80;;;;;;;10.59;100.00;98101.13;184886;1233;46077;-83
2024/02/22 17:21:49;;;;;;;8.10;6.50;;;;;;;10.56;100.00;98086.98;183489;1234;45985;-83
2024/02/22 17:25:51;;;;;;;16.50;8.20;;;;;;;10.53;100.00;98081.48;183797;1233;46059;-83
2024/02/22 17:29:53;;;;;;;10.30;7.60;;;;;;;10.53;100.00;98075.22;184618;1233;59635;-83
2024/02/22 17:33:54;;;;;;;12.60;6.80;;;;;;;10.52;99.92;98061.56;185741;1233;44608;-83
2024/02/22 17:37:56;;;;;;;9.50;8.00;;;;;;;10.52;99.73;98055.73;184609;1234;46206;-83
2024/02/22 17:41:58;;;;;;;8.60;7.00;;;;;;;10.55;99.88;98049.39;183783;1237;46201;-84
2024/02/22 17:46:01;;;;;;;12.80;8.10;;;;;;;10.55;99.87;98043.53;183314;1233;46021;-82
2024/02/22 17:50:03;;;;;;;30.90;10.70;;;;;;;10.55;99.94;98038.84;184003;1235;57917;-83
2024/02/22 17:54:05;;;;;;;14.00;11.20;;;;;;;10.60;100.00;98032.15;183302;1234;46073;-83
2024/02/22 17:58:06;;;;;;;12.70;10.30;;;;;;;10.58;100.00;98024.36;183516;1235;46090;-83
2024/02/22 18:02:08;;;;;;;13.60;11.50;;;;;;;10.57;100.00;98014.34;183581;1234;46087;-83
2024/02/22 18:06:10;;;;;;;13.70;11.10;;;;;;;10.48;100.00;98010.61;183189;1233;46132;-83
2024/02/22 18:10:12;;;;;;;15.40;11.50;;;;;;;10.49;100.00;98003.25;183396;1235;59288;-83
2024/02/22 18:14:14;;;;;;;13.30;10.00;;;;;;;10.41;100.00;97988.77;183045;1238;45997;-83
2024/02/22 18:18:16;;;;;;;15.30;10.60;;;;;;;10.40;100.00;97986.25;183494;1234;44037;-83
2024/02/22 18:22:23;;;;;;;8.70;6.90;;;;;;;10.39;100.00;97988.64;182512;1235;46115;-84
2024/02/22 18:26:26;;;;;;;11.60;7.40;;;;;;;10.42;100.00;97980.98;183616;1233;46097;-83
2024/02/22 18:30:27;;;;;;;7.20;5.80;;;;;;;10.44;100.00;97975.38;183415;1234;57760;-81
2024/02/22 18:34:29;;;;;;;8.30;6.90;;;;;;;10.45;100.00;97969.71;184874;1234;46171;-83
2024/02/22 18:38:32;;;;;;;7.20;6.10;;;;;;;10.43;100.00;97963.51;183537;1234;45951;-83
2024/02/22 18:42:39;;;;;;;11.50;5.80;;;;;;;10.45;100.00;97951.84;183281;1235;44052;-82
2024/02/22 18:46:44;;;;;;;8.70;6.90;;;;;;;10.45;100.00;97942.40;183774;1234;46018;-84